Terminal Aerodrome Forecast
Issued by NWS

Home | Current Version | Previous Version | Text Only | Print | Product List | Glossary On
Versions: 1 2 3 4 5 6 7 8 9 10 11 12 13 14 15 16
900
FTUS45 KTFX 270520
TAFCTB
TAF
KCTB 270520Z 2706/2806 22007KT P6SM VCSH SCT045 OVC070
     FM270900 27008KT P6SM SCT080 BKN150
     FM272000 28017G25KT P6SM VCSH SCT050 BKN080
     FM280300 27015KT P6SM SCT080 BKN150=

USA.gov is the U.S. government's official web portal to all federal, state and local government web resources and services.